sensor_id;sensor_type;location;lat;lon;timestamp;temperature;humidity
19359;DHT22;9815;52.334;20.890;2023-12-04T00:02:05;-1.50;99.90
19359;DHT22;9815;52.334;20.890;2023-12-04T00:04:33;-1.50;99.90
19359;DHT22;9815;52.334;20.890;2023-12-04T00:07:03;-1.50;99.90
19359;DHT22;9815;52.334;20.890;2023-12-04T00:09:31;-1.50;99.90
19359;DHT22;9815;52.334;20.890;2023-12-04T00:12:00;-1.40;99.90
19359;DHT22;9815;52.334;20.890;2023-12-04T00:14:28;-1.40;99.90
19359;DHT22;9815;52.334;20.890;2023-12-04T00:16:58;-1.50;99.90
19359;DHT22;9815;52.334;20.890;2023-12-04T00:19:26;-1.30;99.90
19359;DHT22;9815;52.334;20.890;2023-12-04T00:21:55;-1.50;99.90
19359;DHT22;9815;52.334;20.890;2023-12-04T00:24:23;-1.40;99.90
19359;DHT22;9815;52.334;20.890;2023-12-04T00:26:51;-1.40;99.90
19359;DHT22;9815;52.334;20.890;2023-12-04T00:29:19;-1.40;99.90
19359;DHT22;9815;52.334;20.890;2023-12-04T00:31:48;-1.30;99.90
19359;DHT22;9815;52.334;20.890;2023-12-04T00:34:17;-1.40;99.90
19359;DHT22;9815;52.334;20.890;2023-12-04T00:36:46;-1.40;99.90
19359;DHT22;9815;52.334;20.890;2023-12-04T00:39:15;-1.30;99.90
19359;DHT22;9815;52.334;20.890;2023-12-04T00:41:43;-1.30;99.90
19359;DHT22;9815;52.334;20.890;2023-12-04T00:44:12;-1.30;99.90
19359;DHT22;9815;52.334;20.890;2023-12-04T00:46:40;-1.30;99.90
19359;DHT22;9815;52.334;20.890;2023-12-04T00:49:08;-1.20;99.90
19359;DHT22;9815;52.334;20.890;2023-12-04T00:55:39;-1.20;99.90
19359;DHT22;9815;52.334;20.890;2023-12-04T00:58:07;-1.20;99.90
19359;DHT22;9815;52.334;20.890;2023-12-04T01:00:36;-1.20;99.90
19359;DHT22;9815;52.334;20.890;2023-12-04T01:03:04;-1.20;99.90
19359;DHT22;9815;52.334;20.890;2023-12-04T01:05:32;-1.30;99.90
19359;DHT22;9815;52.334;20.890;2023-12-04T01:08:01;-1.20;99.90
19359;DHT22;9815;52.334;20.890;2023-12-04T01:10:29;-1.20;99.90
19359;DHT22;9815;52.334;20.890;2023-12-04T01:12:59;-1.20;99.90
19359;DHT22;9815;52.334;20.890;2023-12-04T01:15:28;-1.20;99.90
19359;DHT22;9815;52.334;20.890;2023-12-04T01:17:56;-1.20;99.90
19359;DHT22;9815;52.334;20.890;2023-12-04T01:20:27;-1.20;99.90
19359;DHT22;9815;52.334;20.890;2023-12-04T01:22:57;-1.20;99.90
19359;DHT22;9815;52.334;20.890;2023-12-04T01:25:25;-1.20;99.90
19359;DHT22;9815;52.334;20.890;2023-12-04T01:27:53;-1.20;99.90
19359;DHT22;9815;52.334;20.890;2023-12-04T01:30:23;-1.20;99.90
19359;DHT22;9815;52.334;20.890;2023-12-04T01:32:51;-1.20;99.90
19359;DHT22;9815;52.334;20.890;2023-12-04T01:35:19;-1.20;99.90
19359;DHT22;9815;52.334;20.890;2023-12-04T01:37:48;-1.20;99.90
19359;DHT22;9815;52.334;20.890;2023-12-04T01:40:16;-1.20;99.90
19359;DHT22;9815;52.334;20.890;2023-12-04T01:42:44;-1.20;99.90
19359;DHT22;9815;52.334;20.890;2023-12-04T01:45:13;-1.20;99.90
19359;DHT22;9815;52.334;20.890;2023-12-04T01:47:42;-1.20;99.90
19359;DHT22;9815;52.334;20.890;2023-12-04T01:50:13;-1.10;99.90
19359;DHT22;9815;52.334;20.890;2023-12-04T01:52:42;-1.20;99.90
19359;DHT22;9815;52.334;20.890;2023-12-04T01:55:10;-1.10;99.90
19359;DHT22;9815;52.334;20.890;2023-12-04T01:57:39;-1.20;99.90
19359;DHT22;9815;52.334;20.890;2023-12-04T02:00:08;-1.20;99.90
19359;DHT22;9815;52.334;20.890;2023-12-04T02:02:39;-1.20;99.90
19359;DHT22;9815;52.334;20.890;2023-12-04T02:05:11;-1.20;99.90
19359;DHT22;9815;52.334;20.890;2023-12-04T02:07:41;-1.20;99.90
19359;DHT22;9815;52.334;20.890;2023-12-04T02:10:10;-1.10;99.90
19359;DHT22;9815;52.334;20.890;2023-12-04T02:12:38;-1.20;99.90
19359;DHT22;9815;52.334;20.890;2023-12-04T02:15:08;-1.20;99.90
19359;DHT22;9815;52.334;20.890;2023-12-04T02:17:36;-1.30;99.90
19359;DHT22;9815;52.334;20.890;2023-12-04T02:20:06;-1.20;99.90
19359;DHT22;9815;52.334;20.890;2023-12-04T02:22:37;-1.30;99.90
19359;DHT22;9815;52.334;20.890;2023-12-04T02:25:08;-1.30;99.90
19359;DHT22;9815;52.334;20.890;2023-12-04T02:27:58;-1.30;99.90
19359;DHT22;9815;52.334;20.890;2023-12-04T02:30:29;-1.40;99.90
19359;DHT22;9815;52.334;20.890;2023-12-04T02:33:00;-1.30;99.90
19359;DHT22;9815;52.334;20.890;2023-12-04T02:35:32;-1.30;99.90
19359;DHT22;9815;52.334;20.890;2023-12-04T02:38:01;-1.30;99.90
19359;DHT22;9815;52.334;20.890;2023-12-04T02:40:32;-1.30;99.90
19359;DHT22;9815;52.334;20.890;2023-12-04T02:43:00;-1.30;99.90
19359;DHT22;9815;52.334;20.890;2023-12-04T02:45:28;-1.30;99.90
19359;DHT22;9815;52.334;20.890;2023-12-04T02:47:57;-1.40;99.90
19359;DHT22;9815;52.334;20.890;2023-12-04T02:50:26;-1.40;99.90
19359;DHT22;9815;52.334;20.890;2023-12-04T02:52:54;-1.40;99.90
19359;DHT22;9815;52.334;20.890;2023-12-04T02:55:22;-1.40;99.90
19359;DHT22;9815;52.334;20.890;2023-12-04T02:57:52;-1.40;99.90
19359;DHT22;9815;52.334;20.890;2023-12-04T03:00:21;-1.50;99.90
19359;DHT22;9815;52.334;20.890;2023-12-04T03:02:49;-1.50;99.90
19359;DHT22;9815;52.334;20.890;2023-12-04T03:05:19;-1.40;99.90
19359;DHT22;9815;52.334;20.890;2023-12-04T03:07:47;-1.50;99.90
19359;DHT22;9815;52.334;20.890;2023-12-04T03:10:16;-1.50;99.90
19359;DHT22;9815;52.334;20.890;2023-12-04T03:12:44;-1.60;99.90
19359;DHT22;9815;52.334;20.890;2023-12-04T03:15:14;-1.60;99.90
19359;DHT22;9815;52.334;20.890;2023-12-04T03:17:42;-1.50;99.90
19359;DHT22;9815;52.334;20.890;2023-12-04T03:20:11;-1.60;99.90
19359;DHT22;9815;52.334;20.890;2023-12-04T03:22:39;-1.60;99.90
19359;DHT22;9815;52.334;20.890;2023-12-04T03:25:08;-1.70;99.90
19359;DHT22;9815;52.334;20.890;2023-12-04T03:27:36;-1.60;99.90
19359;DHT22;9815;52.334;20.890;2023-12-04T03:30:06;-1.70;99.90
19359;DHT22;9815;52.334;20.890;2023-12-04T03:32:36;-1.70;99.90
19359;DHT22;9815;52.334;20.890;2023-12-04T03:35:04;-1.70;99.90
19359;DHT22;9815;52.334;20.890;2023-12-04T03:37:32;-1.70;99.90
19359;DHT22;9815;52.334;20.890;2023-12-04T03:40:01;-1.70;99.90
19359;DHT22;9815;52.334;20.890;2023-12-04T03:42:29;-1.70;99.90
19359;DHT22;9815;52.334;20.890;2023-12-04T03:44:59;-1.70;99.90
19359;DHT22;9815;52.334;20.890;2023-12-04T03:47:27;-1.80;99.90
19359;DHT22;9815;52.334;20.890;2023-12-04T03:49:57;-1.80;99.90
19359;DHT22;9815;52.334;20.890;2023-12-04T03:52:25;-1.80;99.90
19359;DHT22;9815;52.334;20.890;2023-12-04T03:54:53;-1.80;99.90
19359;DHT22;9815;52.334;20.890;2023-12-04T03:57:22;-1.80;99.90
19359;DHT22;9815;52.334;20.890;2023-12-04T03:59:50;-1.70;99.90
19359;DHT22;9815;52.334;20.890;2023-12-04T04:02:18;-1.80;99.90
19359;DHT22;9815;52.334;20.890;2023-12-04T04:04:47;-1.80;99.90
19359;DHT22;9815;52.334;20.890;2023-12-04T04:07:17;-1.70;99.90
19359;DHT22;9815;52.334;20.890;2023-12-04T04:09:45;-1.80;99.90
19359;DHT22;9815;52.334;20.890;2023-12-04T04:12:13;-1.80;99.90
19359;DHT22;9815;52.334;20.890;2023-12-04T04:14:42;-1.80;99.90
19359;DHT22;9815;52.334;20.890;2023-12-04T04:17:10;-1.70;99.90
19359;DHT22;9815;52.334;20.890;2023-12-04T04:19:38;-1.80;99.90
19359;DHT22;9815;52.334;20.890;2023-12-04T04:22:07;-1.90;99.90
19359;DHT22;9815;52.334;20.890;2023-12-04T04:24:37;-1.90;99.90
19359;DHT22;9815;52.334;20.890;2023-12-04T04:27:05;-1.90;99.90
19359;DHT22;9815;52.334;20.890;2023-12-04T04:29:33;-1.90;99.90
19359;DHT22;9815;52.334;20.890;2023-12-04T04:32:02;-1.90;99.90
19359;DHT22;9815;52.334;20.890;2023-12-04T04:34:30;-1.90;99.90
19359;DHT22;9815;52.334;20.890;2023-12-04T04:36:59;-1.90;99.90
19359;DHT22;9815;52.334;20.890;2023-12-04T04:39:27;-1.90;99.90
19359;DHT22;9815;52.334;20.890;2023-12-04T04:41:57;-1.90;99.90
19359;DHT22;9815;52.334;20.890;2023-12-04T04:44:25;-1.90;99.90
19359;DHT22;9815;52.334;20.890;2023-12-04T04:46:54;-1.90;99.90
19359;DHT22;9815;52.334;20.890;2023-12-04T04:49:22;-2.00;99.90
19359;DHT22;9815;52.334;20.890;2023-12-04T04:51:51;-2.00;99.90
19359;DHT22;9815;52.334;20.890;2023-12-04T04:54:19;-1.90;99.90
19359;DHT22;9815;52.334;20.890;2023-12-04T04:56:48;-2.00;99.90
19359;DHT22;9815;52.334;20.890;2023-12-04T04:59:17;-2.00;99.90
19359;DHT22;9815;52.334;20.890;2023-12-04T05:01:46;-2.00;99.90
19359;DHT22;9815;52.334;20.890;2023-12-04T05:04:14;-2.00;99.90
19359;DHT22;9815;52.334;20.890;2023-12-04T05:06:42;-2.00;99.90
19359;DHT22;9815;52.334;20.890;2023-12-04T05:09:11;-2.00;99.90
19359;DHT22;9815;52.334;20.890;2023-12-04T05:11:39;-2.00;99.90
19359;DHT22;9815;52.334;20.890;2023-12-04T05:14:07;-2.00;99.90
19359;DHT22;9815;52.334;20.890;2023-12-04T05:16:37;-2.00;99.90
19359;DHT22;9815;52.334;20.890;2023-12-04T05:19:05;-2.00;99.90
19359;DHT22;9815;52.334;20.890;2023-12-04T05:21:34;-2.00;99.90
19359;DHT22;9815;52.334;20.890;2023-12-04T05:24:02;-2.00;99.90
19359;DHT22;9815;52.334;20.890;2023-12-04T05:26:31;-2.00;99.90
19359;DHT22;9815;52.334;20.890;2023-12-04T05:28:59;-2.00;99.90
19359;DHT22;9815;52.334;20.890;2023-12-04T05:31:27;-2.00;99.90
19359;DHT22;9815;52.334;20.890;2023-12-04T05:33:57;-2.00;99.90
19359;DHT22;9815;52.334;20.890;2023-12-04T05:36:27;-2.10;99.90
19359;DHT22;9815;52.334;20.890;2023-12-04T05:38:54;-2.10;99.90
19359;DHT22;9815;52.334;20.890;2023-12-04T05:41:27;-2.10;99.90
19359;DHT22;9815;52.334;20.890;2023-12-04T05:43:55;-2.10;99.90
19359;DHT22;9815;52.334;20.890;2023-12-04T05:46:24;-2.10;99.90
19359;DHT22;9815;52.334;20.890;2023-12-04T05:48:52;-2.20;99.90
19359;DHT22;9815;52.334;20.890;2023-12-04T05:51:22;-2.20;99.90
19359;DHT22;9815;52.334;20.890;2023-12-04T05:53:50;-2.20;99.90
19359;DHT22;9815;52.334;20.890;2023-12-04T05:56:19;-2.10;99.90
19359;DHT22;9815;52.334;20.890;2023-12-04T05:58:47;-2.20;99.90
19359;DHT22;9815;52.334;20.890;2023-12-04T06:01:15;-2.10;99.90
19359;DHT22;9815;52.334;20.890;2023-12-04T06:03:44;-2.20;99.90
19359;DHT22;9815;52.334;20.890;2023-12-04T06:06:12;-2.20;99.90
19359;DHT22;9815;52.334;20.890;2023-12-04T06:08:42;-2.10;99.90
19359;DHT22;9815;52.334;20.890;2023-12-04T06:11:10;-2.20;99.90
19359;DHT22;9815;52.334;20.890;2023-12-04T06:13:38;-2.20;99.90
19359;DHT22;9815;52.334;20.890;2023-12-04T06:16:07;-2.20;99.90
19359;DHT22;9815;52.334;20.890;2023-12-04T06:18:36;-2.20;99.90
19359;DHT22;9815;52.334;20.890;2023-12-04T06:21:05;-2.20;99.90
19359;DHT22;9815;52.334;20.890;2023-12-04T06:23:34;-2.20;99.90
19359;DHT22;9815;52.334;20.890;2023-12-04T06:26:04;-2.20;99.90
19359;DHT22;9815;52.334;20.890;2023-12-04T06:28:34;-2.20;99.90
19359;DHT22;9815;52.334;20.890;2023-12-04T06:31:03;-2.20;99.90
19359;DHT22;9815;52.334;20.890;2023-12-04T06:33:32;-2.20;99.90
19359;DHT22;9815;52.334;20.890;2023-12-04T06:36:01;-2.20;99.90
19359;DHT22;9815;52.334;20.890;2023-12-04T06:38:32;-2.20;99.90
19359;DHT22;9815;52.334;20.890;2023-12-04T06:41:04;-2.20;99.90
19359;DHT22;9815;52.334;20.890;2023-12-04T06:43:35;-2.20;99.90
19359;DHT22;9815;52.334;20.890;2023-12-04T06:46:05;-2.20;99.90
19359;DHT22;9815;52.334;20.890;2023-12-04T06:48:34;-2.20;99.90
19359;DHT22;9815;52.334;20.890;2023-12-04T06:51:02;-2.20;99.90
19359;DHT22;9815;52.334;20.890;2023-12-04T06:53:31;-2.20;99.90
19359;DHT22;9815;52.334;20.890;2023-12-04T06:55:59;-2.20;99.90
19359;DHT22;9815;52.334;20.890;2023-12-04T06:58:29;-2.20;99.90
19359;DHT22;9815;52.334;20.890;2023-12-04T07:00:57;-2.20;99.90
19359;DHT22;9815;52.334;20.890;2023-12-04T07:03:26;-2.20;99.90
19359;DHT22;9815;52.334;20.890;2023-12-04T07:05:54;-2.10;99.90
19359;DHT22;9815;52.334;20.890;2023-12-04T07:08:22;-2.20;99.90
19359;DHT22;9815;52.334;20.890;2023-12-04T07:10:51;-2.20;99.90
19359;DHT22;9815;52.334;20.890;2023-12-04T07:13:19;-2.10;99.90
19359;DHT22;9815;52.334;20.890;2023-12-04T07:15:49;-2.10;99.90
19359;DHT22;9815;52.334;20.890;2023-12-04T07:18:18;-2.10;99.90
19359;DHT22;9815;52.334;20.890;2023-12-04T07:20:46;-2.10;99.90
19359;DHT22;9815;52.334;20.890;2023-12-04T07:23:14;-2.00;99.90
19359;DHT22;9815;52.334;20.890;2023-12-04T07:25:43;-2.00;99.90
19359;DHT22;9815;52.334;20.890;2023-12-04T07:28:13;-2.00;99.90
19359;DHT22;9815;52.334;20.890;2023-12-04T07:30:41;-2.00;99.90
19359;DHT22;9815;52.334;20.890;2023-12-04T07:33:11;-2.00;99.90
19359;DHT22;9815;52.334;20.890;2023-12-04T07:35:39;-2.00;99.90
19359;DHT22;9815;52.334;20.890;2023-12-04T07:38:08;-2.00;99.90
19359;DHT22;9815;52.334;20.890;2023-12-04T07:40:37;-2.00;99.90
19359;DHT22;9815;52.334;20.890;2023-12-04T07:43:05;-2.00;99.90
19359;DHT22;9815;52.334;20.890;2023-12-04T07:45:35;-2.00;99.90
19359;DHT22;9815;52.334;20.890;2023-12-04T07:48:04;-2.00;99.90
19359;DHT22;9815;52.334;20.890;2023-12-04T07:50:34;-1.90;99.90
19359;DHT22;9815;52.334;20.890;2023-12-04T07:53:05;-1.90;99.90
19359;DHT22;9815;52.334;20.890;2023-12-04T07:55:34;-1.90;99.90
19359;DHT22;9815;52.334;20.890;2023-12-04T07:58:03;-1.80;99.90
19359;DHT22;9815;52.334;20.890;2023-12-04T08:00:31;-1.80;99.90
19359;DHT22;9815;52.334;20.890;2023-12-04T08:03:00;-1.80;99.90
19359;DHT22;9815;52.334;20.890;2023-12-04T08:05:28;-1.80;99.90
19359;DHT22;9815;52.334;20.890;2023-12-04T08:08:00;-1.70;99.90
19359;DHT22;9815;52.334;20.890;2023-12-04T08:10:28;-1.70;99.90
19359;DHT22;9815;52.334;20.890;2023-12-04T08:12:57;-1.70;99.90
19359;DHT22;9815;52.334;20.890;2023-12-04T08:15:26;-1.60;99.90
19359;DHT22;9815;52.334;20.890;2023-12-04T08:17:54;-1.70;99.90
19359;DHT22;9815;52.334;20.890;2023-12-04T08:20:26;-1.70;99.90
19359;DHT22;9815;52.334;20.890;2023-12-04T08:23:07;-1.70;99.90
19359;DHT22;9815;52.334;20.890;2023-12-04T08:25:36;-1.80;99.90
19359;DHT22;9815;52.334;20.890;2023-12-04T08:28:07;-1.80;99.90
19359;DHT22;9815;52.334;20.890;2023-12-04T08:30:37;-1.80;99.90
19359;DHT22;9815;52.334;20.890;2023-12-04T08:33:07;-1.80;99.90
19359;DHT22;9815;52.334;20.890;2023-12-04T08:35:37;-1.80;99.90
19359;DHT22;9815;52.334;20.890;2023-12-04T08:38:06;-1.80;99.90
19359;DHT22;9815;52.334;20.890;2023-12-04T08:40:35;-1.80;99.90
19359;DHT22;9815;52.334;20.890;2023-12-04T08:43:03;-1.80;99.90
19359;DHT22;9815;52.334;20.890;2023-12-04T08:45:32;-1.70;99.90
19359;DHT22;9815;52.334;20.890;2023-12-04T08:48:01;-1.70;99.90
19359;DHT22;9815;52.334;20.890;2023-12-04T08:50:30;-1.70;99.90
19359;DHT22;9815;52.334;20.890;2023-12-04T08:53:00;-1.60;99.90
19359;DHT22;9815;52.334;20.890;2023-12-04T08:55:31;-1.60;99.90
19359;DHT22;9815;52.334;20.890;2023-12-04T08:58:00;-1.70;99.90
19359;DHT22;9815;52.334;20.890;2023-12-04T09:00:33;-1.80;99.90
19359;DHT22;9815;52.334;20.890;2023-12-04T09:03:04;-1.70;99.90
19359;DHT22;9815;52.334;20.890;2023-12-04T09:05:38;-1.60;99.90
19359;DHT22;9815;52.334;20.890;2023-12-04T09:08:07;-1.60;99.90
19359;DHT22;9815;52.334;20.890;2023-12-04T09:10:40;-1.40;99.90
19359;DHT22;9815;52.334;20.890;2023-12-04T09:13:32;-1.40;99.90
19359;DHT22;9815;52.334;20.890;2023-12-04T09:16:05;-1.50;99.90
19359;DHT22;9815;52.334;20.890;2023-12-04T09:18:36;-1.50;99.90
19359;DHT22;9815;52.334;20.890;2023-12-04T09:21:06;-1.50;99.90
19359;DHT22;9815;52.334;20.890;2023-12-04T09:23:35;-1.50;99.90
19359;DHT22;9815;52.334;20.890;2023-12-04T09:26:05;-1.60;99.90
19359;DHT22;9815;52.334;20.890;2023-12-04T09:28:35;-1.50;99.90
19359;DHT22;9815;52.334;20.890;2023-12-04T09:31:04;-1.50;99.90
19359;DHT22;9815;52.334;20.890;2023-12-04T09:33:33;-1.50;99.90
19359;DHT22;9815;52.334;20.890;2023-12-04T09:36:04;-1.60;99.90
19359;DHT22;9815;52.334;20.890;2023-12-04T09:38:32;-1.60;99.90
19359;DHT22;9815;52.334;20.890;2023-12-04T09:41:01;-1.50;99.90
19359;DHT22;9815;52.334;20.890;2023-12-04T09:43:32;-1.50;99.90
19359;DHT22;9815;52.334;20.890;2023-12-04T09:46:00;-1.40;99.90
19359;DHT22;9815;52.334;20.890;2023-12-04T09:48:30;-1.40;99.90
19359;DHT22;9815;52.334;20.890;2023-12-04T09:51:00;-1.30;99.90
19359;DHT22;9815;52.334;20.890;2023-12-04T09:53:30;-1.30;99.90
19359;DHT22;9815;52.334;20.890;2023-12-04T09:56:00;-1.30;99.90
19359;DHT22;9815;52.334;20.890;2023-12-04T09:58:36;-1.30;99.90
19359;DHT22;9815;52.334;20.890;2023-12-04T10:01:08;-1.40;99.90
19359;DHT22;9815;52.334;20.890;2023-12-04T10:03:37;-1.30;99.90
19359;DHT22;9815;52.334;20.890;2023-12-04T10:06:08;-1.30;99.90
19359;DHT22;9815;52.334;20.890;2023-12-04T10:08:37;-1.40;99.90
19359;DHT22;9815;52.334;20.890;2023-12-04T10:11:05;-1.40;99.90
19359;DHT22;9815;52.334;20.890;2023-12-04T10:13:35;-1.40;99.90
19359;DHT22;9815;52.334;20.890;2023-12-04T10:16:33;-1.30;99.90
19359;DHT22;9815;52.334;20.890;2023-12-04T10:19:15;-1.30;99.90
19359;DHT22;9815;52.334;20.890;2023-12-04T10:21:46;-1.30;99.90
19359;DHT22;9815;52.334;20.890;2023-12-04T10:24:27;-1.30;99.90
19359;DHT22;9815;52.334;20.890;2023-12-04T10:26:56;-1.30;99.90
19359;DHT22;9815;52.334;20.890;2023-12-04T10:29:29;-1.30;99.90
19359;DHT22;9815;52.334;20.890;2023-12-04T10:32:01;-1.30;99.90
19359;DHT22;9815;52.334;20.890;2023-12-04T10:34:30;-1.20;99.90
19359;DHT22;9815;52.334;20.890;2023-12-04T10:37:03;-1.20;99.90
19359;DHT22;9815;52.334;20.890;2023-12-04T10:39:33;-1.10;99.90
19359;DHT22;9815;52.334;20.890;2023-12-04T10:42:23;-1.00;99.90
19359;DHT22;9815;52.334;20.890;2023-12-04T10:44:55;-0.90;99.90
19359;DHT22;9815;52.334;20.890;2023-12-04T10:47:24;-0.90;99.90
19359;DHT22;9815;52.334;20.890;2023-12-04T10:49:53;-0.80;99.90
19359;DHT22;9815;52.334;20.890;2023-12-04T10:52:22;-0.70;99.90
19359;DHT22;9815;52.334;20.890;2023-12-04T10:54:51;-0.70;99.90
19359;DHT22;9815;52.334;20.890;2023-12-04T10:57:24;-0.60;99.90
19359;DHT22;9815;52.334;20.890;2023-12-04T10:59:57;-0.50;99.90
19359;DHT22;9815;52.334;20.890;2023-12-04T11:02:26;-0.40;99.90
19359;DHT22;9815;52.334;20.890;2023-12-04T11:05:01;-0.30;99.90
19359;DHT22;9815;52.334;20.890;2023-12-04T11:07:36;-0.30;99.90
19359;DHT22;9815;52.334;20.890;2023-12-04T11:10:26;-0.20;99.90
19359;DHT22;9815;52.334;20.890;2023-12-04T11:13:00;-0.20;99.90
19359;DHT22;9815;52.334;20.890;2023-12-04T11:15:37;-0.30;99.90
19359;DHT22;9815;52.334;20.890;2023-12-04T11:18:07;-0.30;99.90
19359;DHT22;9815;52.334;20.890;2023-12-04T11:20:44;-0.40;99.90
19359;DHT22;9815;52.334;20.890;2023-12-04T11:23:14;-0.30;99.90
19359;DHT22;9815;52.334;20.890;2023-12-04T11:25:43;-0.20;99.90
19359;DHT22;9815;52.334;20.890;2023-12-04T11:28:14;-0.10;99.90
19359;DHT22;9815;52.334;20.890;2023-12-04T11:30:47;-0.10;99.90
19359;DHT22;9815;52.334;20.890;2023-12-04T11:33:17;-0.20;99.90
19359;DHT22;9815;52.334;20.890;2023-12-04T11:35:46;-0.20;99.90
19359;DHT22;9815;52.334;20.890;2023-12-04T11:38:14;-0.20;99.90
19359;DHT22;9815;52.334;20.890;2023-12-04T11:40:43;-0.30;99.90
19359;DHT22;9815;52.334;20.890;2023-12-04T11:43:21;-0.30;99.90
19359;DHT22;9815;52.334;20.890;2023-12-04T11:45:52;-0.30;99.90
19359;DHT22;9815;52.334;20.890;2023-12-04T11:48:23;-0.30;99.90
19359;DHT22;9815;52.334;20.890;2023-12-04T11:50:56;-0.20;99.90
19359;DHT22;9815;52.334;20.890;2023-12-04T11:53:25;-0.20;99.90
19359;DHT22;9815;52.334;20.890;2023-12-04T11:55:55;-0.30;99.90
19359;DHT22;9815;52.334;20.890;2023-12-04T11:58:26;-0.30;99.90
19359;DHT22;9815;52.334;20.890;2023-12-04T12:00:56;-0.30;99.90
19359;DHT22;9815;52.334;20.890;2023-12-04T12:03:24;-0.30;99.90
19359;DHT22;9815;52.334;20.890;2023-12-04T12:05:53;-0.30;99.90
19359;DHT22;9815;52.334;20.890;2023-12-04T12:08:23;-0.30;99.90
19359;DHT22;9815;52.334;20.890;2023-12-04T12:10:53;-0.30;99.90
19359;DHT22;9815;52.334;20.890;2023-12-04T12:13:22;-0.30;99.90
19359;DHT22;9815;52.334;20.890;2023-12-04T12:15:53;-0.30;99.90
19359;DHT22;9815;52.334;20.890;2023-12-04T12:18:23;-0.30;99.90
19359;DHT22;9815;52.334;20.890;2023-12-04T12:20:55;-0.30;99.90
19359;DHT22;9815;52.334;20.890;2023-12-04T12:23:24;-0.30;99.90
19359;DHT22;9815;52.334;20.890;2023-12-04T12:25:53;-0.20;99.90
19359;DHT22;9815;52.334;20.890;2023-12-04T12:28:23;-0.20;99.90
19359;DHT22;9815;52.334;20.890;2023-12-04T12:30:51;-0.20;99.90
19359;DHT22;9815;52.334;20.890;2023-12-04T12:33:20;-0.20;99.90
19359;DHT22;9815;52.334;20.890;2023-12-04T12:35:51;-0.20;99.90
19359;DHT22;9815;52.334;20.890;2023-12-04T12:38:29;-0.20;99.90
19359;DHT22;9815;52.334;20.890;2023-12-04T12:41:04;-0.20;99.90
19359;DHT22;9815;52.334;20.890;2023-12-04T12:43:34;-0.20;99.90
19359;DHT22;9815;52.334;20.890;2023-12-04T12:46:05;-0.20;99.90
19359;DHT22;9815;52.334;20.890;2023-12-04T12:48:33;-0.20;99.90
19359;DHT22;9815;52.334;20.890;2023-12-04T12:51:06;-0.30;99.90
19359;DHT22;9815;52.334;20.890;2023-12-04T12:53:38;-0.30;99.90
19359;DHT22;9815;52.334;20.890;2023-12-04T12:56:11;-0.30;99.90
19359;DHT22;9815;52.334;20.890;2023-12-04T12:58:41;-0.30;99.90
19359;DHT22;9815;52.334;20.890;2023-12-04T13:01:10;-0.30;99.90
19359;DHT22;9815;52.334;20.890;2023-12-04T13:03:39;-0.30;99.90
19359;DHT22;9815;52.334;20.890;2023-12-04T13:06:09;-0.30;99.90
19359;DHT22;9815;52.334;20.890;2023-12-04T13:08:38;-0.30;99.90
19359;DHT22;9815;52.334;20.890;2023-12-04T13:11:07;-0.40;99.90
19359;DHT22;9815;52.334;20.890;2023-12-04T13:13:36;-0.30;99.90
19359;DHT22;9815;52.334;20.890;2023-12-04T13:16:05;-0.40;99.90
19359;DHT22;9815;52.334;20.890;2023-12-04T13:18:34;-0.40;99.90
19359;DHT22;9815;52.334;20.890;2023-12-04T13:21:04;-0.50;99.90
19359;DHT22;9815;52.334;20.890;2023-12-04T13:23:37;-0.50;99.90
19359;DHT22;9815;52.334;20.890;2023-12-04T13:26:07;-0.60;99.90
19359;DHT22;9815;52.334;20.890;2023-12-04T13:28:38;-0.50;99.90
19359;DHT22;9815;52.334;20.890;2023-12-04T13:31:10;-0.60;99.90
19359;DHT22;9815;52.334;20.890;2023-12-04T13:33:39;-0.60;99.90
19359;DHT22;9815;52.334;20.890;2023-12-04T13:36:10;-0.60;99.90
19359;DHT22;9815;52.334;20.890;2023-12-04T13:38:40;-0.60;99.90
19359;DHT22;9815;52.334;20.890;2023-12-04T13:41:08;-0.60;99.90
19359;DHT22;9815;52.334;20.890;2023-12-04T13:43:57;-0.70;99.90
19359;DHT22;9815;52.334;20.890;2023-12-04T13:46:27;-0.70;99.90
19359;DHT22;9815;52.334;20.890;2023-12-04T13:48:57;-0.70;99.90
19359;DHT22;9815;52.334;20.890;2023-12-04T13:51:25;-0.70;99.90
19359;DHT22;9815;52.334;20.890;2023-12-04T13:53:55;-0.70;99.90
19359;DHT22;9815;52.334;20.890;2023-12-04T13:56:30;-0.70;99.90
19359;DHT22;9815;52.334;20.890;2023-12-04T13:59:13;-0.70;99.90
19359;DHT22;9815;52.334;20.890;2023-12-04T14:01:47;-0.80;99.90
19359;DHT22;9815;52.334;20.890;2023-12-04T14:04:17;-0.80;99.90
19359;DHT22;9815;52.334;20.890;2023-12-04T14:06:46;-0.80;99.90
19359;DHT22;9815;52.334;20.890;2023-12-04T14:09:17;-0.80;99.90
19359;DHT22;9815;52.334;20.890;2023-12-04T14:11:45;-0.90;99.90
19359;DHT22;9815;52.334;20.890;2023-12-04T14:14:14;-0.90;99.90
19359;DHT22;9815;52.334;20.890;2023-12-04T14:16:43;-0.90;99.90
19359;DHT22;9815;52.334;20.890;2023-12-04T14:19:13;-0.90;99.90
19359;DHT22;9815;52.334;20.890;2023-12-04T14:21:44;-0.90;99.90
19359;DHT22;9815;52.334;20.890;2023-12-04T14:24:12;-1.00;99.90
19359;DHT22;9815;52.334;20.890;2023-12-04T14:26:42;-0.90;99.90
19359;DHT22;9815;52.334;20.890;2023-12-04T14:29:10;-1.00;99.90
19359;DHT22;9815;52.334;20.890;2023-12-04T14:31:40;-1.10;99.90
19359;DHT22;9815;52.334;20.890;2023-12-04T14:34:09;-1.10;99.90
19359;DHT22;9815;52.334;20.890;2023-12-04T14:36:37;-1.10;99.90
19359;DHT22;9815;52.334;20.890;2023-12-04T14:39:06;-1.10;99.90
19359;DHT22;9815;52.334;20.890;2023-12-04T14:41:37;-1.20;99.90
19359;DHT22;9815;52.334;20.890;2023-12-04T14:44:07;-1.20;99.90
19359;DHT22;9815;52.334;20.890;2023-12-04T14:46:36;-1.20;99.90
19359;DHT22;9815;52.334;20.890;2023-12-04T14:49:05;-1.20;99.90
19359;DHT22;9815;52.334;20.890;2023-12-04T14:51:34;-1.20;99.90
19359;DHT22;9815;52.334;20.890;2023-12-04T14:54:02;-1.30;99.90
19359;DHT22;9815;52.334;20.890;2023-12-04T14:56:47;-1.30;99.90
19359;DHT22;9815;52.334;20.890;2023-12-04T14:59:36;-1.30;99.90
19359;DHT22;9815;52.334;20.890;2023-12-04T15:02:23;-1.40;99.90
19359;DHT22;9815;52.334;20.890;2023-12-04T15:05:06;-1.30;99.90
19359;DHT22;9815;52.334;20.890;2023-12-04T15:07:48;-1.40;99.90
19359;DHT22;9815;52.334;20.890;2023-12-04T15:10:43;-1.20;99.90
19359;DHT22;9815;52.334;20.890;2023-12-04T15:13:29;-1.30;99.90
19359;DHT22;9815;52.334;20.890;2023-12-04T15:16:24;-1.40;99.90
19359;DHT22;9815;52.334;20.890;2023-12-04T15:19:09;-1.40;99.90
19359;DHT22;9815;52.334;20.890;2023-12-04T15:22:03;-1.30;99.90
19359;DHT22;9815;52.334;20.890;2023-12-04T15:24:32;-1.40;99.90
19359;DHT22;9815;52.334;20.890;2023-12-04T15:27:01;-1.40;99.90
19359;DHT22;9815;52.334;20.890;2023-12-04T15:29:30;-1.40;99.90
19359;DHT22;9815;52.334;20.890;2023-12-04T15:32:00;-1.40;99.90
19359;DHT22;9815;52.334;20.890;2023-12-04T15:34:27;-1.40;99.90
19359;DHT22;9815;52.334;20.890;2023-12-04T15:36:56;-1.40;99.90
19359;DHT22;9815;52.334;20.890;2023-12-04T15:39:23;-1.50;99.90
19359;DHT22;9815;52.334;20.890;2023-12-04T15:41:52;-1.50;99.90
19359;DHT22;9815;52.334;20.890;2023-12-04T15:44:21;-1.50;99.90
19359;DHT22;9815;52.334;20.890;2023-12-04T15:46:48;-1.50;99.90
19359;DHT22;9815;52.334;20.890;2023-12-04T15:49:18;-1.50;99.90
19359;DHT22;9815;52.334;20.890;2023-12-04T15:51:46;-1.50;99.90
19359;DHT22;9815;52.334;20.890;2023-12-04T15:54:14;-1.50;99.90